sensor_id;sensor_type;location;lat;lon;timestamp;temperature;humidity
24664;DHT22;12791;50.992;13.788;2022-07-05T00:00:04;19.60;62.50
24664;DHT22;12791;50.992;13.788;2022-07-05T00:02:31;19.60;62.50
24664;DHT22;12791;50.992;13.788;2022-07-05T00:04:58;19.60;62.50
24664;DHT22;12791;50.992;13.788;2022-07-05T00:07:24;19.60;62.30
24664;DHT22;12791;50.992;13.788;2022-07-05T00:09:54;19.60;62.40
24664;DHT22;12791;50.992;13.788;2022-07-05T00:12:24;19.60;62.30
24664;DHT22;12791;50.992;13.788;2022-07-05T00:14:51;19.60;62.90
24664;DHT22;12791;50.992;13.788;2022-07-05T00:17:18;19.60;62.10
24664;DHT22;12791;50.992;13.788;2022-07-05T00:19:44;19.60;62.00
24664;DHT22;12791;50.992;13.788;2022-07-05T00:22:11;19.60;61.90
24664;DHT22;12791;50.992;13.788;2022-07-05T00:24:38;19.60;61.80
24664;DHT22;12791;50.992;13.788;2022-07-05T00:27:06;19.60;61.80
24664;DHT22;12791;50.992;13.788;2022-07-05T00:29:32;19.60;61.60
24664;DHT22;12791;50.992;13.788;2022-07-05T00:31:59;19.70;61.40
24664;DHT22;12791;50.992;13.788;2022-07-05T00:34:25;19.70;61.40
24664;DHT22;12791;50.992;13.788;2022-07-05T00:36:52;19.70;61.50
24664;DHT22;12791;50.992;13.788;2022-07-05T00:39:19;19.60;61.60
24664;DHT22;12791;50.992;13.788;2022-07-05T00:41:45;19.60;61.80
24664;DHT22;12791;50.992;13.788;2022-07-05T00:44:13;19.60;61.80
24664;DHT22;12791;50.992;13.788;2022-07-05T00:46:42;19.60;61.90
24664;DHT22;12791;50.992;13.788;2022-07-05T00:49:09;19.60;62.30
24664;DHT22;12791;50.992;13.788;2022-07-05T00:51:37;19.60;62.60
24664;DHT22;12791;50.992;13.788;2022-07-05T00:54:05;19.50;62.70
24664;DHT22;12791;50.992;13.788;2022-07-05T00:56:32;19.50;62.90
24664;DHT22;12791;50.992;13.788;2022-07-05T00:59:00;19.50;63.00
24664;DHT22;12791;50.992;13.788;2022-07-05T01:01:28;19.40;63.00
24664;DHT22;12791;50.992;13.788;2022-07-05T01:03:54;19.40;63.10
24664;DHT22;12791;50.992;13.788;2022-07-05T01:06:22;19.40;63.10
24664;DHT22;12791;50.992;13.788;2022-07-05T01:08:49;19.30;63.00
24664;DHT22;12791;50.992;13.788;2022-07-05T01:11:16;19.30;63.10
24664;DHT22;12791;50.992;13.788;2022-07-05T01:13:43;19.30;63.10
24664;DHT22;12791;50.992;13.788;2022-07-05T01:16:10;19.30;63.10
24664;DHT22;12791;50.992;13.788;2022-07-05T01:18:38;19.30;63.40
24664;DHT22;12791;50.992;13.788;2022-07-05T01:21:05;19.20;63.20
24664;DHT22;12791;50.992;13.788;2022-07-05T01:23:33;19.20;63.50
24664;DHT22;12791;50.992;13.788;2022-07-05T01:26:01;19.20;63.70
24664;DHT22;12791;50.992;13.788;2022-07-05T01:28:28;19.20;63.70
24664;DHT22;12791;50.992;13.788;2022-07-05T01:30:55;19.10;63.70
24664;DHT22;12791;50.992;13.788;2022-07-05T01:33:27;19.20;63.90
24664;DHT22;12791;50.992;13.788;2022-07-05T01:35:54;19.20;63.90
24664;DHT22;12791;50.992;13.788;2022-07-05T01:38:21;19.10;63.90
24664;DHT22;12791;50.992;13.788;2022-07-05T01:40:49;19.10;63.90
24664;DHT22;12791;50.992;13.788;2022-07-05T01:43:17;19.10;64.20
24664;DHT22;12791;50.992;13.788;2022-07-05T01:45:45;19.00;64.30
24664;DHT22;12791;50.992;13.788;2022-07-05T01:48:13;19.00;64.40
24664;DHT22;12791;50.992;13.788;2022-07-05T01:50:43;19.00;64.40
24664;DHT22;12791;50.992;13.788;2022-07-05T01:53:14;18.90;64.20
24664;DHT22;12791;50.992;13.788;2022-07-05T01:55:42;18.90;64.00
24664;DHT22;12791;50.992;13.788;2022-07-05T01:58:11;18.90;64.00
24664;DHT22;12791;50.992;13.788;2022-07-05T02:00:44;18.90;64.20
24664;DHT22;12791;50.992;13.788;2022-07-05T02:03:12;18.80;64.90
24664;DHT22;12791;50.992;13.788;2022-07-05T02:05:39;18.80;64.70
24664;DHT22;12791;50.992;13.788;2022-07-05T02:08:06;18.80;65.00
24664;DHT22;12791;50.992;13.788;2022-07-05T02:10:34;18.70;65.30
24664;DHT22;12791;50.992;13.788;2022-07-05T02:13:01;18.60;65.60
24664;DHT22;12791;50.992;13.788;2022-07-05T02:15:31;18.60;65.70
24664;DHT22;12791;50.992;13.788;2022-07-05T02:17:57;18.60;65.80
24664;DHT22;12791;50.992;13.788;2022-07-05T02:20:24;18.40;65.90
24664;DHT22;12791;50.992;13.788;2022-07-05T02:22:51;18.30;66.50
24664;DHT22;12791;50.992;13.788;2022-07-05T02:25:17;18.20;66.70
24664;DHT22;12791;50.992;13.788;2022-07-05T02:27:44;18.20;66.80
24664;DHT22;12791;50.992;13.788;2022-07-05T02:30:11;18.20;67.00
24664;DHT22;12791;50.992;13.788;2022-07-05T02:32:40;18.20;66.80
24664;DHT22;12791;50.992;13.788;2022-07-05T02:35:08;18.20;66.70
24664;DHT22;12791;50.992;13.788;2022-07-05T02:37:35;18.20;66.80
24664;DHT22;12791;50.992;13.788;2022-07-05T02:40:03;18.20;66.90
24664;DHT22;12791;50.992;13.788;2022-07-05T02:42:30;18.10;66.90
24664;DHT22;12791;50.992;13.788;2022-07-05T02:44:56;18.10;67.00
24664;DHT22;12791;50.992;13.788;2022-07-05T02:47:23;18.10;67.00
24664;DHT22;12791;50.992;13.788;2022-07-05T02:49:51;18.00;67.00
24664;DHT22;12791;50.992;13.788;2022-07-05T02:52:18;18.00;67.30
24664;DHT22;12791;50.992;13.788;2022-07-05T02:54:45;18.00;67.50
24664;DHT22;12791;50.992;13.788;2022-07-05T02:57:11;18.00;67.60
24664;DHT22;12791;50.992;13.788;2022-07-05T02:59:38;17.90;67.50
24664;DHT22;12791;50.992;13.788;2022-07-05T03:02:04;17.80;67.50
24664;DHT22;12791;50.992;13.788;2022-07-05T03:04:31;17.80;67.80
24664;DHT22;12791;50.992;13.788;2022-07-05T03:06:59;17.80;68.00
24664;DHT22;12791;50.992;13.788;2022-07-05T03:09:26;17.80;68.40
24664;DHT22;12791;50.992;13.788;2022-07-05T03:11:52;17.80;68.60
24664;DHT22;12791;50.992;13.788;2022-07-05T03:14:19;17.80;68.80
24664;DHT22;12791;50.992;13.788;2022-07-05T03:16:46;17.70;69.00
24664;DHT22;12791;50.992;13.788;2022-07-05T03:19:13;17.70;69.10
24664;DHT22;12791;50.992;13.788;2022-07-05T03:21:39;17.70;69.20
24664;DHT22;12791;50.992;13.788;2022-07-05T03:24:07;17.70;69.40
24664;DHT22;12791;50.992;13.788;2022-07-05T03:26:34;17.70;69.30
24664;DHT22;12791;50.992;13.788;2022-07-05T03:29:01;17.70;69.40
24664;DHT22;12791;50.992;13.788;2022-07-05T03:31:27;17.70;69.40
24664;DHT22;12791;50.992;13.788;2022-07-05T03:33:54;17.70;69.50
24664;DHT22;12791;50.992;13.788;2022-07-05T03:36:21;17.70;70.10
24664;DHT22;12791;50.992;13.788;2022-07-05T03:38:48;17.80;69.60
24664;DHT22;12791;50.992;13.788;2022-07-05T03:41:17;17.80;69.80
24664;DHT22;12791;50.992;13.788;2022-07-05T03:43:43;17.80;69.90
24664;DHT22;12791;50.992;13.788;2022-07-05T03:46:10;17.80;69.80
24664;DHT22;12791;50.992;13.788;2022-07-05T03:48:37;17.80;69.80
24664;DHT22;12791;50.992;13.788;2022-07-05T03:51:03;17.80;69.70
24664;DHT22;12791;50.992;13.788;2022-07-05T03:53:30;17.80;69.80
24664;DHT22;12791;50.992;13.788;2022-07-05T03:55:56;17.80;69.90
24664;DHT22;12791;50.992;13.788;2022-07-05T03:58:24;17.80;69.90
24664;DHT22;12791;50.992;13.788;2022-07-05T04:00:51;17.90;70.10
24664;DHT22;12791;50.992;13.788;2022-07-05T04:03:18;17.90;70.30
24664;DHT22;12791;50.992;13.788;2022-07-05T04:05:44;17.90;70.40
24664;DHT22;12791;50.992;13.788;2022-07-05T04:08:11;17.90;70.40
24664;DHT22;12791;50.992;13.788;2022-07-05T04:10:38;18.00;70.40
24664;DHT22;12791;50.992;13.788;2022-07-05T04:13:04;18.10;70.40
24664;DHT22;12791;50.992;13.788;2022-07-05T04:15:32;18.10;70.20
24664;DHT22;12791;50.992;13.788;2022-07-05T04:17:59;18.20;70.10
24664;DHT22;12791;50.992;13.788;2022-07-05T04:20:26;18.20;70.40
24664;DHT22;12791;50.992;13.788;2022-07-05T04:22:52;18.30;70.60
24664;DHT22;12791;50.992;13.788;2022-07-05T04:25:21;18.30;70.70
24664;DHT22;12791;50.992;13.788;2022-07-05T04:27:50;18.30;70.90
24664;DHT22;12791;50.992;13.788;2022-07-05T04:30:18;18.40;71.30
24664;DHT22;12791;50.992;13.788;2022-07-05T04:32:47;18.40;71.60
24664;DHT22;12791;50.992;13.788;2022-07-05T04:35:14;18.30;72.10
24664;DHT22;12791;50.992;13.788;2022-07-05T04:37:41;18.30;72.40
24664;DHT22;12791;50.992;13.788;2022-07-05T04:40:10;18.30;72.70
24664;DHT22;12791;50.992;13.788;2022-07-05T04:42:37;18.40;72.50
24664;DHT22;12791;50.992;13.788;2022-07-05T04:45:05;18.40;72.70
24664;DHT22;12791;50.992;13.788;2022-07-05T04:47:31;18.40;73.00
24664;DHT22;12791;50.992;13.788;2022-07-05T04:50:01;18.50;73.10
24664;DHT22;12791;50.992;13.788;2022-07-05T04:52:28;18.50;72.90
24664;DHT22;12791;50.992;13.788;2022-07-05T04:54:55;18.50;72.70
24664;DHT22;12791;50.992;13.788;2022-07-05T04:57:22;18.60;72.80
24664;DHT22;12791;50.992;13.788;2022-07-05T04:59:48;18.60;73.00
24664;DHT22;12791;50.992;13.788;2022-07-05T05:02:15;18.60;73.10
24664;DHT22;12791;50.992;13.788;2022-07-05T05:04:42;18.60;72.40
24664;DHT22;12791;50.992;13.788;2022-07-05T05:07:10;18.70;72.30
24664;DHT22;12791;50.992;13.788;2022-07-05T05:09:36;18.70;72.00
24664;DHT22;12791;50.992;13.788;2022-07-05T05:12:04;18.80;71.70
24664;DHT22;12791;50.992;13.788;2022-07-05T05:14:31;18.80;71.30
24664;DHT22;12791;50.992;13.788;2022-07-05T05:16:57;18.90;70.80
24664;DHT22;12791;50.992;13.788;2022-07-05T05:19:24;18.90;70.50
24664;DHT22;12791;50.992;13.788;2022-07-05T05:21:50;18.90;70.40
24664;DHT22;12791;50.992;13.788;2022-07-05T05:24:18;18.90;70.20
24664;DHT22;12791;50.992;13.788;2022-07-05T05:26:45;18.90;70.00
24664;DHT22;12791;50.992;13.788;2022-07-05T05:29:12;18.90;69.60
24664;DHT22;12791;50.992;13.788;2022-07-05T05:31:39;18.90;69.40
24664;DHT22;12791;50.992;13.788;2022-07-05T05:34:06;19.00;69.50
24664;DHT22;12791;50.992;13.788;2022-07-05T05:36:32;18.90;69.10
24664;DHT22;12791;50.992;13.788;2022-07-05T05:38:59;18.90;69.00
24664;DHT22;12791;50.992;13.788;2022-07-05T05:41:27;19.00;69.00
24664;DHT22;12791;50.992;13.788;2022-07-05T05:43:53;19.00;68.90
24664;DHT22;12791;50.992;13.788;2022-07-05T05:46:20;19.10;68.80
24664;DHT22;12791;50.992;13.788;2022-07-05T05:48:47;19.10;68.70
24664;DHT22;12791;50.992;13.788;2022-07-05T05:51:13;19.20;68.50
24664;DHT22;12791;50.992;13.788;2022-07-05T05:53:40;19.30;67.90
24664;DHT22;12791;50.992;13.788;2022-07-05T05:56:07;19.30;66.80
24664;DHT22;12791;50.992;13.788;2022-07-05T05:58:35;19.40;66.30
24664;DHT22;12791;50.992;13.788;2022-07-05T06:01:02;19.40;66.10
24664;DHT22;12791;50.992;13.788;2022-07-05T06:03:28;19.50;65.70
24664;DHT22;12791;50.992;13.788;2022-07-05T06:05:55;19.60;65.00
24664;DHT22;12791;50.992;13.788;2022-07-05T06:08:22;19.60;64.60
24664;DHT22;12791;50.992;13.788;2022-07-05T06:10:49;19.70;64.40
24664;DHT22;12791;50.992;13.788;2022-07-05T06:13:15;19.70;63.80
24664;DHT22;12791;50.992;13.788;2022-07-05T06:15:43;19.70;62.70
24664;DHT22;12791;50.992;13.788;2022-07-05T06:18:11;19.80;62.60
24664;DHT22;12791;50.992;13.788;2022-07-05T06:20:39;19.90;62.50
24664;DHT22;12791;50.992;13.788;2022-07-05T06:23:06;20.00;62.30
24664;DHT22;12791;50.992;13.788;2022-07-05T06:25:34;20.00;61.90
24664;DHT22;12791;50.992;13.788;2022-07-05T06:28:03;20.10;61.70
24664;DHT22;12791;50.992;13.788;2022-07-05T06:30:31;20.20;61.60
24664;DHT22;12791;50.992;13.788;2022-07-05T06:32:59;20.20;61.20
24664;DHT22;12791;50.992;13.788;2022-07-05T06:35:26;20.30;61.00
24664;DHT22;12791;50.992;13.788;2022-07-05T06:37:54;20.30;60.80
24664;DHT22;12791;50.992;13.788;2022-07-05T06:40:23;20.40;59.90
24664;DHT22;12791;50.992;13.788;2022-07-05T06:42:50;20.50;59.70
24664;DHT22;12791;50.992;13.788;2022-07-05T06:45:16;20.50;59.60
24664;DHT22;12791;50.992;13.788;2022-07-05T06:47:43;20.50;59.50
24664;DHT22;12791;50.992;13.788;2022-07-05T06:50:12;20.50;59.70
24664;DHT22;12791;50.992;13.788;2022-07-05T06:52:38;20.60;59.80
24664;DHT22;12791;50.992;13.788;2022-07-05T06:55:06;20.60;59.30
24664;DHT22;12791;50.992;13.788;2022-07-05T06:57:33;20.70;59.10
24664;DHT22;12791;50.992;13.788;2022-07-05T07:00:00;20.70;58.90
24664;DHT22;12791;50.992;13.788;2022-07-05T07:02:27;20.80;58.30
24664;DHT22;12791;50.992;13.788;2022-07-05T07:04:54;20.90;58.20
24664;DHT22;12791;50.992;13.788;2022-07-05T07:07:22;20.90;58.80
24664;DHT22;12791;50.992;13.788;2022-07-05T07:10:07;21.00;57.90
24664;DHT22;12791;50.992;13.788;2022-07-05T07:12:33;21.10;57.20
24664;DHT22;12791;50.992;13.788;2022-07-05T07:15:00;21.20;57.30
24664;DHT22;12791;50.992;13.788;2022-07-05T07:17:26;21.20;57.50
24664;DHT22;12791;50.992;13.788;2022-07-05T07:19:54;21.30;56.70
24664;DHT22;12791;50.992;13.788;2022-07-05T07:22:22;21.40;56.10
24664;DHT22;12791;50.992;13.788;2022-07-05T07:24:49;21.40;55.60
24664;DHT22;12791;50.992;13.788;2022-07-05T07:27:15;21.40;55.60
24664;DHT22;12791;50.992;13.788;2022-07-05T07:29:42;21.50;55.10
24664;DHT22;12791;50.992;13.788;2022-07-05T07:32:09;21.50;54.30
24664;DHT22;12791;50.992;13.788;2022-07-05T07:34:36;21.60;54.40
24664;DHT22;12791;50.992;13.788;2022-07-05T07:37:04;21.70;54.10
24664;DHT22;12791;50.992;13.788;2022-07-05T07:39:32;21.70;53.00
24664;DHT22;12791;50.992;13.788;2022-07-05T07:41:59;21.80;51.90
24664;DHT22;12791;50.992;13.788;2022-07-05T07:44:25;21.90;51.10
24664;DHT22;12791;50.992;13.788;2022-07-05T07:46:52;21.90;51.60
24664;DHT22;12791;50.992;13.788;2022-07-05T07:49:19;21.90;52.00
24664;DHT22;12791;50.992;13.788;2022-07-05T07:51:45;22.00;51.80
24664;DHT22;12791;50.992;13.788;2022-07-05T07:54:12;22.00;51.20
24664;DHT22;12791;50.992;13.788;2022-07-05T07:56:40;22.10;50.70
24664;DHT22;12791;50.992;13.788;2022-07-05T07:59:07;22.10;50.40
24664;DHT22;12791;50.992;13.788;2022-07-05T08:01:34;22.20;51.00
24664;DHT22;12791;50.992;13.788;2022-07-05T08:04:01;22.20;49.90
24664;DHT22;12791;50.992;13.788;2022-07-05T08:06:27;22.30;50.20
24664;DHT22;12791;50.992;13.788;2022-07-05T08:08:55;22.30;50.30
24664;DHT22;12791;50.992;13.788;2022-07-05T08:11:22;22.40;49.50
24664;DHT22;12791;50.992;13.788;2022-07-05T08:13:50;22.50;50.00
24664;DHT22;12791;50.992;13.788;2022-07-05T08:16:16;22.50;50.10
24664;DHT22;12791;50.992;13.788;2022-07-05T08:18:43;22.60;49.90
24664;DHT22;12791;50.992;13.788;2022-07-05T08:21:27;22.60;50.00
24664;DHT22;12791;50.992;13.788;2022-07-05T08:23:57;22.80;49.90
24664;DHT22;12791;50.992;13.788;2022-07-05T08:26:24;22.80;50.00
24664;DHT22;12791;50.992;13.788;2022-07-05T08:28:52;22.80;49.90
24664;DHT22;12791;50.992;13.788;2022-07-05T08:31:19;22.80;48.90
24664;DHT22;12791;50.992;13.788;2022-07-05T08:33:46;22.80;49.30
24664;DHT22;12791;50.992;13.788;2022-07-05T08:36:12;22.90;49.20
24664;DHT22;12791;50.992;13.788;2022-07-05T08:38:39;22.90;48.40
24664;DHT22;12791;50.992;13.788;2022-07-05T08:41:08;23.00;48.10
24664;DHT22;12791;50.992;13.788;2022-07-05T08:43:35;23.10;48.20
24664;DHT22;12791;50.992;13.788;2022-07-05T08:46:05;23.10;47.20
24664;DHT22;12791;50.992;13.788;2022-07-05T08:48:36;23.20;46.90
24664;DHT22;12791;50.992;13.788;2022-07-05T08:51:09;23.20;46.10
24664;DHT22;12791;50.992;13.788;2022-07-05T08:53:37;23.20;47.00
24664;DHT22;12791;50.992;13.788;2022-07-05T08:56:04;23.30;46.70
24664;DHT22;12791;50.992;13.788;2022-07-05T08:58:32;23.40;47.20
24664;DHT22;12791;50.992;13.788;2022-07-05T09:00:59;23.40;45.80
24664;DHT22;12791;50.992;13.788;2022-07-05T09:03:31;23.40;46.70
24664;DHT22;12791;50.992;13.788;2022-07-05T09:05:58;23.50;45.70
24664;DHT22;12791;50.992;13.788;2022-07-05T09:08:26;23.50;44.90
24664;DHT22;12791;50.992;13.788;2022-07-05T09:10:55;23.50;44.70
24664;DHT22;12791;50.992;13.788;2022-07-05T09:13:22;23.50;45.50
24664;DHT22;12791;50.992;13.788;2022-07-05T09:15:48;23.50;44.90
24664;DHT22;12791;50.992;13.788;2022-07-05T09:18:45;23.50;45.50
24664;DHT22;12791;50.992;13.788;2022-07-05T09:21:17;23.70;44.80
24664;DHT22;12791;50.992;13.788;2022-07-05T09:23:44;23.80;44.40
24664;DHT22;12791;50.992;13.788;2022-07-05T09:26:11;23.90;44.50
24664;DHT22;12791;50.992;13.788;2022-07-05T09:28:53;23.90;43.70
24664;DHT22;12791;50.992;13.788;2022-07-05T09:31:26;23.90;44.50
24664;DHT22;12791;50.992;13.788;2022-07-05T09:33:55;23.90;43.70
24664;DHT22;12791;50.992;13.788;2022-07-05T09:36:23;23.90;44.20
24664;DHT22;12791;50.992;13.788;2022-07-05T09:38:50;23.90;43.60
24664;DHT22;12791;50.992;13.788;2022-07-05T09:41:17;23.80;43.80
24664;DHT22;12791;50.992;13.788;2022-07-05T09:43:44;23.90;44.30
24664;DHT22;12791;50.992;13.788;2022-07-05T09:46:10;23.90;42.90
24664;DHT22;12791;50.992;13.788;2022-07-05T09:48:51;23.90;43.20
24664;DHT22;12791;50.992;13.788;2022-07-05T09:51:19;23.90;43.90
24664;DHT22;12791;50.992;13.788;2022-07-05T09:53:47;24.00;43.00
24664;DHT22;12791;50.992;13.788;2022-07-05T09:56:14;24.00;43.20
24664;DHT22;12791;50.992;13.788;2022-07-05T09:58:41;24.00;43.30
24664;DHT22;12791;50.992;13.788;2022-07-05T10:01:23;24.00;42.90
24664;DHT22;12791;50.992;13.788;2022-07-05T10:03:53;24.00;42.90
24664;DHT22;12791;50.992;13.788;2022-07-05T10:06:23;24.00;43.20
24664;DHT22;12791;50.992;13.788;2022-07-05T10:08:50;24.10;42.50
24664;DHT22;12791;50.992;13.788;2022-07-05T10:11:17;24.20;42.70
24664;DHT22;12791;50.992;13.788;2022-07-05T10:13:45;24.30;42.50
24664;DHT22;12791;50.992;13.788;2022-07-05T10:16:14;24.30;42.00
24664;DHT22;12791;50.992;13.788;2022-07-05T10:18:41;24.30;41.30
24664;DHT22;12791;50.992;13.788;2022-07-05T10:21:12;24.30;41.10
24664;DHT22;12791;50.992;13.788;2022-07-05T10:23:42;24.30;41.70
24664;DHT22;12791;50.992;13.788;2022-07-05T10:26:10;24.40;41.30
24664;DHT22;12791;50.992;13.788;2022-07-05T10:28:39;24.40;41.30
24664;DHT22;12791;50.992;13.788;2022-07-05T10:31:07;24.50;42.10
24664;DHT22;12791;50.992;13.788;2022-07-05T10:33:35;24.50;42.00
24664;DHT22;12791;50.992;13.788;2022-07-05T10:36:02;24.50;41.40
24664;DHT22;12791;50.992;13.788;2022-07-05T10:38:30;24.40;41.30
24664;DHT22;12791;50.992;13.788;2022-07-05T10:41:02;24.40;41.10
24664;DHT22;12791;50.992;13.788;2022-07-05T10:43:29;24.40;41.10
24664;DHT22;12791;50.992;13.788;2022-07-05T10:45:55;24.30;41.20
24664;DHT22;12791;50.992;13.788;2022-07-05T10:48:23;24.30;41.10
24664;DHT22;12791;50.992;13.788;2022-07-05T10:50:52;24.30;41.20
24664;DHT22;12791;50.992;13.788;2022-07-05T10:53:20;24.40;41.50
24664;DHT22;12791;50.992;13.788;2022-07-05T10:55:48;24.50;40.80
24664;DHT22;12791;50.992;13.788;2022-07-05T10:58:32;24.60;40.80
24664;DHT22;12791;50.992;13.788;2022-07-05T11:04:27;24.80;39.20
24664;DHT22;12791;50.992;13.788;2022-07-05T11:06:58;24.70;40.00
24664;DHT22;12791;50.992;13.788;2022-07-05T11:09:24;24.80;40.30
24664;DHT22;12791;50.992;13.788;2022-07-05T11:12:16;24.80;40.70
24664;DHT22;12791;50.992;13.788;2022-07-05T11:14:47;24.80;40.40
24664;DHT22;12791;50.992;13.788;2022-07-05T11:17:19;24.80;39.50
24664;DHT22;12791;50.992;13.788;2022-07-05T11:20:12;24.70;39.70
24664;DHT22;12791;50.992;13.788;2022-07-05T11:22:41;24.70;39.40
24664;DHT22;12791;50.992;13.788;2022-07-05T11:25:09;24.80;39.80
24664;DHT22;12791;50.992;13.788;2022-07-05T11:30:23;24.90;39.60
24664;DHT22;12791;50.992;13.788;2022-07-05T11:32:50;24.90;40.00
24664;DHT22;12791;50.992;13.788;2022-07-05T11:35:18;24.90;39.80
24664;DHT22;12791;50.992;13.788;2022-07-05T11:37:57;24.80;40.50
24664;DHT22;12791;50.992;13.788;2022-07-05T11:40:29;24.80;40.70
24664;DHT22;12791;50.992;13.788;2022-07-05T11:42:56;24.80;40.50
24664;DHT22;12791;50.992;13.788;2022-07-05T11:45:24;24.80;40.20
24664;DHT22;12791;50.992;13.788;2022-07-05T11:47:54;24.90;40.40
24664;DHT22;12791;50.992;13.788;2022-07-05T11:50:26;25.10;39.90
24664;DHT22;12791;50.992;13.788;2022-07-05T11:52:53;25.20;39.90
24664;DHT22;12791;50.992;13.788;2022-07-05T11:55:20;25.20;39.40
24664;DHT22;12791;50.992;13.788;2022-07-05T11:57:50;25.20;39.00
24664;DHT22;12791;50.992;13.788;2022-07-05T12:00:30;25.30;39.60
24664;DHT22;12791;50.992;13.788;2022-07-05T12:02:58;25.30;39.70
24664;DHT22;12791;50.992;13.788;2022-07-05T12:05:30;25.30;39.80
24664;DHT22;12791;50.992;13.788;2022-07-05T12:07:57;25.30;39.40
24664;DHT22;12791;50.992;13.788;2022-07-05T12:10:23;25.40;39.30
24664;DHT22;12791;50.992;13.788;2022-07-05T12:13:08;25.40;39.30
24664;DHT22;12791;50.992;13.788;2022-07-05T12:15:37;25.40;38.70
24664;DHT22;12791;50.992;13.788;2022-07-05T12:18:05;25.30;38.60
24664;DHT22;12791;50.992;13.788;2022-07-05T12:20:33;25.20;38.70
24664;DHT22;12791;50.992;13.788;2022-07-05T12:23:00;25.10;39.20
24664;DHT22;12791;50.992;13.788;2022-07-05T12:25:28;25.00;39.30
24664;DHT22;12791;50.992;13.788;2022-07-05T12:27:58;25.00;39.10
24664;DHT22;12791;50.992;13.788;2022-07-05T12:30:27;25.00;39.00
24664;DHT22;12791;50.992;13.788;2022-07-05T12:32:58;25.10;38.50
24664;DHT22;12791;50.992;13.788;2022-07-05T12:35:30;25.20;37.60
24664;DHT22;12791;50.992;13.788;2022-07-05T12:38:01;25.20;37.40
24664;DHT22;12791;50.992;13.788;2022-07-05T12:40:28;25.30;37.40
24664;DHT22;12791;50.992;13.788;2022-07-05T12:43:05;25.40;37.80
24664;DHT22;12791;50.992;13.788;2022-07-05T12:45:33;25.50;37.60
24664;DHT22;12791;50.992;13.788;2022-07-05T12:48:03;25.60;37.90
24664;DHT22;12791;50.992;13.788;2022-07-05T12:50:43;25.60;37.70
24664;DHT22;12791;50.992;13.788;2022-07-05T12:53:11;25.70;36.40
24664;DHT22;12791;50.992;13.788;2022-07-05T12:56:00;25.70;36.90
24664;DHT22;12791;50.992;13.788;2022-07-05T12:58:49;25.60;37.10
24664;DHT22;12791;50.992;13.788;2022-07-05T13:01:24;25.60;37.30
24664;DHT22;12791;50.992;13.788;2022-07-05T13:03:57;25.60;37.60
24664;DHT22;12791;50.992;13.788;2022-07-05T13:06:39;25.60;37.00
24664;DHT22;12791;50.992;13.788;2022-07-05T13:09:06;25.60;37.60
24664;DHT22;12791;50.992;13.788;2022-07-05T13:11:33;25.60;37.20
24664;DHT22;12791;50.992;13.788;2022-07-05T13:13:59;25.70;37.20
24664;DHT22;12791;50.992;13.788;2022-07-05T13:16:26;25.60;37.10
24664;DHT22;12791;50.992;13.788;2022-07-05T13:18:53;25.60;37.50
24664;DHT22;12791;50.992;13.788;2022-07-05T13:21:21;25.50;38.10
24664;DHT22;12791;50.992;13.788;2022-07-05T13:23:47;25.40;38.60
24664;DHT22;12791;50.992;13.788;2022-07-05T13:26:14;25.50;38.50
24664;DHT22;12791;50.992;13.788;2022-07-05T13:28:40;25.50;36.40
24664;DHT22;12791;50.992;13.788;2022-07-05T13:31:07;25.60;37.70
24664;DHT22;12791;50.992;13.788;2022-07-05T13:33:36;25.70;36.80
24664;DHT22;12791;50.992;13.788;2022-07-05T13:36:03;25.80;36.80
24664;DHT22;12791;50.992;13.788;2022-07-05T13:38:31;25.90;36.00
24664;DHT22;12791;50.992;13.788;2022-07-05T13:40:58;26.00;35.40
24664;DHT22;12791;50.992;13.788;2022-07-05T13:43:25;26.00;35.10
24664;DHT22;12791;50.992;13.788;2022-07-05T13:45:51;26.10;36.40
24664;DHT22;12791;50.992;13.788;2022-07-05T13:48:18;26.20;36.40
24664;DHT22;12791;50.992;13.788;2022-07-05T13:50:45;26.10;36.50
24664;DHT22;12791;50.992;13.788;2022-07-05T13:53:11;26.10;36.80
24664;DHT22;12791;50.992;13.788;2022-07-05T13:55:39;26.10;36.70
24664;DHT22;12791;50.992;13.788;2022-07-05T13:58:06;26.10;36.50
24664;DHT22;12791;50.992;13.788;2022-07-05T14:00:32;26.10;36.80
24664;DHT22;12791;50.992;13.788;2022-07-05T14:02:59;26.10;37.00
24664;DHT22;12791;50.992;13.788;2022-07-05T14:05:25;26.10;36.90
24664;DHT22;12791;50.992;13.788;2022-07-05T14:07:52;26.00;37.00
24664;DHT22;12791;50.992;13.788;2022-07-05T14:10:19;25.80;37.10
24664;DHT22;12791;50.992;13.788;2022-07-05T14:12:47;25.70;37.50
24664;DHT22;12791;50.992;13.788;2022-07-05T14:15:14;25.80;37.40
24664;DHT22;12791;50.992;13.788;2022-07-05T14:17:40;25.90;37.00
24664;DHT22;12791;50.992;13.788;2022-07-05T14:20:08;26.00;36.80
24664;DHT22;12791;50.992;13.788;2022-07-05T14:22:35;26.10;36.40
24664;DHT22;12791;50.992;13.788;2022-07-05T14:25:02;26.20;36.40
24664;DHT22;12791;50.992;13.788;2022-07-05T14:27:29;26.30;35.50
24664;DHT22;12791;50.992;13.788;2022-07-05T14:29:57;26.40;35.90
24664;DHT22;12791;50.992;13.788;2022-07-05T14:32:23;26.50;36.90
24664;DHT22;12791;50.992;13.788;2022-07-05T14:34:50;26.60;35.90
24664;DHT22;12791;50.992;13.788;2022-07-05T14:37:17;26.70;36.10
24664;DHT22;12791;50.992;13.788;2022-07-05T14:39:45;26.70;36.10
24664;DHT22;12791;50.992;13.788;2022-07-05T14:42:12;26.80;35.80
24664;DHT22;12791;50.992;13.788;2022-07-05T14:44:39;26.90;35.80
24664;DHT22;12791;50.992;13.788;2022-07-05T14:47:07;26.80;35.70
24664;DHT22;12791;50.992;13.788;2022-07-05T14:49:33;26.80;36.00
24664;DHT22;12791;50.992;13.788;2022-07-05T14:52:00;26.80;36.00
24664;DHT22;12791;50.992;13.788;2022-07-05T14:54:27;26.80;35.40
24664;DHT22;12791;50.992;13.788;2022-07-05T14:56:54;26.80;35.30
24664;DHT22;12791;50.992;13.788;2022-07-05T14:59:21;26.90;34.90
24664;DHT22;12791;50.992;13.788;2022-07-05T15:01:47;27.00;34.10
24664;DHT22;12791;50.992;13.788;2022-07-05T15:04:15;27.00;34.20
24664;DHT22;12791;50.992;13.788;2022-07-05T15:06:42;27.00;33.70
24664;DHT22;12791;50.992;13.788;2022-07-05T15:09:08;27.00;34.10
24664;DHT22;12791;50.992;13.788;2022-07-05T15:11:35;27.00;34.20
24664;DHT22;12791;50.992;13.788;2022-07-05T15:14:01;27.10;32.80
24664;DHT22;12791;50.992;13.788;2022-07-05T15:16:30;27.10;32.90
24664;DHT22;12791;50.992;13.788;2022-07-05T15:18:56;27.10;33.30
24664;DHT22;12791;50.992;13.788;2022-07-05T15:21:24;27.10;33.70
24664;DHT22;12791;50.992;13.788;2022-07-05T15:23:51;27.20;33.70
24664;DHT22;12791;50.992;13.788;2022-07-05T15:26:18;27.20;33.90